createdAt,value
2017-10-23T00:00:46.566Z,0
2017-10-23T00:01:46.556Z,0
2017-10-23T00:02:46.887Z,0
2017-10-23T00:03:46.891Z,0
2017-10-23T00:04:46.860Z,0
2017-10-23T00:05:46.869Z,0
2017-10-23T00:06:46.550Z,0
2017-10-23T00:07:46.488Z,0
2017-10-23T00:08:46.803Z,0
2017-10-23T00:09:46.454Z,0
2017-10-23T00:10:46.102Z,0
2017-10-23T00:11:47.133Z,0
2017-10-23T00:12:46.072Z,0
2017-10-23T00:13:47.099Z,0
2017-10-23T00:14:46.390Z,0
2017-10-23T00:15:46.396Z,0
2017-10-23T00:16:46.719Z,0
2017-10-23T00:17:46.354Z,0
2017-10-23T00:18:46.690Z,0
2017-10-23T00:19:46.331Z,0
2017-10-23T00:20:46.660Z,0
2017-10-23T00:21:46.674Z,0
2017-10-23T00:22:45.974Z,0
2017-10-23T00:23:47.008Z,0
2017-10-23T00:24:46.311Z,0
2017-10-23T00:25:45.944Z,0
2017-10-23T00:26:46.239Z,0
2017-10-23T00:27:46.564Z,0
2017-10-23T00:28:45.890Z,0
2017-10-23T00:29:46.543Z,0
2017-10-23T00:30:46.549Z,0
2017-10-23T00:31:46.179Z,0
2017-10-23T00:32:46.864Z,0
2017-10-23T00:33:46.164Z,0
2017-10-23T00:34:46.502Z,0
2017-10-23T00:35:46.135Z,0
2017-10-23T00:36:46.122Z,0
2017-10-23T00:37:46.114Z,0
2017-10-23T00:38:46.456Z,0
2017-10-23T00:39:46.416Z,0
2017-10-23T00:40:46.109Z,0
2017-10-23T00:41:46.398Z,0
2017-10-23T00:42:46.062Z,0
2017-10-23T00:43:46.036Z,0
2017-10-23T00:44:46.025Z,0
2017-10-23T00:45:45.662Z,0
2017-10-23T00:46:46.330Z,0
2017-10-23T00:47:46.690Z,0
2017-10-23T00:48:46.320Z,0
2017-10-23T00:49:45.969Z,0
2017-10-23T00:50:46.279Z,0
2017-10-23T00:51:45.931Z,0
2017-10-23T00:52:46.257Z,0
2017-10-23T00:53:45.903Z,0
2017-10-23T00:54:45.893Z,0
2017-10-23T00:55:46.214Z,0
2017-10-23T00:56:46.203Z,0
2017-10-23T00:57:46.551Z,0
2017-10-23T00:58:45.836Z,0
2017-10-23T00:59:46.538Z,0
2017-10-23T01:00:45.473Z,0
2017-10-23T01:01:46.170Z,0
2017-10-23T01:02:46.473Z,0
2017-10-23T01:03:45.456Z,0
2017-10-23T01:04:45.423Z,0
2017-10-23T01:05:45.412Z,0
2017-10-23T01:06:45.415Z,0
2017-10-23T01:07:46.075Z,0
2017-10-23T01:08:45.716Z,0
2017-10-23T01:09:46.063Z,0
2017-10-23T01:10:45.708Z,0
2017-10-23T01:11:46.020Z,0
2017-10-23T01:12:46.018Z,0
2017-10-23T01:13:45.677Z,0
2017-10-23T01:14:46.064Z,0
2017-10-23T01:15:45.972Z,0
2017-10-23T01:16:46.683Z,0
2017-10-23T01:17:45.263Z,0
2017-10-23T01:18:45.594Z,0
2017-10-23T01:19:45.242Z,0
2017-10-23T01:20:45.911Z,0
2017-10-23T01:21:45.224Z,0
2017-10-23T01:22:46.246Z,0
2017-10-23T01:23:45.535Z,0
2017-10-23T01:24:45.519Z,0
2017-10-23T01:25:45.508Z,0
2017-10-23T01:26:45.515Z,0
2017-10-23T01:27:45.843Z,0
2017-10-23T01:28:45.473Z,0
2017-10-23T01:29:45.799Z,0
2017-10-23T01:30:45.446Z,0
2017-10-23T01:31:45.776Z,0
2017-10-23T01:32:45.422Z,0
2017-10-23T01:33:45.421Z,0
2017-10-23T01:34:45.737Z,0
2017-10-23T01:35:45.722Z,0
2017-10-23T01:36:46.054Z,0
2017-10-23T01:37:45.356Z,0
2017-10-23T01:38:45.361Z,0
2017-10-23T01:39:46.040Z,0
2017-10-23T01:40:45.662Z,0
2017-10-23T01:41:45.318Z,0
2017-10-23T01:42:45.636Z,0
2017-10-23T01:43:45.285Z,0
2017-10-23T01:44:45.271Z,0
2017-10-23T01:45:45.260Z,0
2017-10-23T01:46:45.274Z,0
2017-10-23T01:47:45.250Z,0
2017-10-23T01:48:45.234Z,0
2017-10-23T01:49:45.217Z,0
2017-10-23T01:50:45.886Z,0
2017-10-23T01:51:45.525Z,0
2017-10-23T01:52:45.535Z,0
2017-10-23T01:53:44.829Z,0
2017-10-23T01:54:45.157Z,0
2017-10-23T01:55:45.492Z,0
2017-10-23T01:56:45.125Z,0
2017-10-23T01:57:45.846Z,0
2017-10-23T01:58:45.113Z,0
2017-10-23T01:59:45.442Z,0
2017-10-23T02:00:45.421Z,0
2017-10-23T02:01:45.067Z,0
2017-10-23T02:02:44.761Z,0
2017-10-23T02:03:45.415Z,0
2017-10-23T02:04:45.031Z,0
2017-10-23T02:05:45.058Z,0
2017-10-23T02:06:45.024Z,0
2017-10-23T02:07:45.034Z,0
2017-10-23T02:08:45.696Z,0
2017-10-23T02:09:45.010Z,0
2017-10-23T02:10:45.314Z,0
2017-10-23T02:11:44.602Z,0
2017-10-23T02:12:44.942Z,0
2017-10-23T02:13:45.264Z,0
2017-10-23T02:14:45.625Z,0
2017-10-23T02:15:44.900Z,0
2017-10-23T02:16:44.886Z,0
2017-10-23T02:17:45.226Z,0
2017-10-23T02:18:45.254Z,0
2017-10-23T02:19:44.513Z,0
2017-10-23T02:20:45.180Z,0
2017-10-23T02:21:44.824Z,0
2017-10-23T02:22:45.154Z,0
2017-10-23T02:23:44.816Z,0
2017-10-23T02:24:44.461Z,0
2017-10-23T02:25:44.436Z,0
2017-10-23T02:26:45.109Z,0
2017-10-23T02:27:45.099Z,0
2017-10-23T02:28:44.738Z,0
2017-10-23T02:29:44.389Z,0
2017-10-23T02:30:44.720Z,0
2017-10-23T02:31:45.045Z,0
2017-10-23T02:32:45.038Z,0
2017-10-23T02:33:44.338Z,0
2017-10-23T02:34:45.348Z,0
2017-10-23T02:35:45.025Z,0
2017-10-23T02:36:45.002Z,0
2017-10-23T02:37:44.649Z,0
2017-10-23T02:38:44.974Z,0
2017-10-23T02:39:44.610Z,0
2017-10-23T02:40:44.616Z,0
2017-10-23T02:41:44.936Z,0
2017-10-23T02:42:44.231Z,0
2017-10-23T02:43:44.910Z,0
2017-10-23T02:44:44.544Z,0
2017-10-23T02:45:44.555Z,0
2017-10-23T02:46:44.877Z,0
2017-10-23T02:47:44.866Z,0
2017-10-23T02:48:44.521Z,0
2017-10-23T02:49:44.159Z,0
2017-10-23T02:50:44.523Z,0
2017-10-23T02:51:44.802Z,0
2017-10-23T02:52:44.812Z,0
2017-10-23T02:53:44.805Z,0
2017-10-23T02:54:44.767Z,0
2017-10-23T02:55:44.072Z,0
2017-10-23T02:56:44.060Z,0
2017-10-23T02:57:44.402Z,0
2017-10-23T02:58:44.034Z,0
2017-10-23T02:59:44.041Z,0
2017-10-23T03:00:44.353Z,0
2017-10-23T03:01:44.345Z,0
2017-10-23T03:02:44.010Z,0
2017-10-23T03:03:44.338Z,0
2017-10-23T03:04:44.315Z,0
2017-10-23T03:05:44.290Z,0
2017-10-23T03:06:44.637Z,0
2017-10-23T03:07:44.275Z,0
2017-10-23T03:08:44.624Z,0
2017-10-23T03:09:43.903Z,0
2017-10-23T03:10:44.917Z,0
2017-10-23T03:11:44.223Z,0
2017-10-23T03:12:43.884Z,0
2017-10-23T03:13:44.198Z,0
2017-10-23T03:14:44.888Z,0
2017-10-23T03:15:44.169Z,0
2017-10-23T03:16:44.535Z,0
2017-10-23T03:17:43.828Z,0
2017-10-23T03:18:44.141Z,0
2017-10-23T03:19:44.118Z,0
2017-10-23T03:20:44.132Z,0
2017-10-23T03:21:44.105Z,0
2017-10-23T03:22:44.103Z,0
2017-10-23T03:23:44.109Z,0
2017-10-23T03:24:44.766Z,0
2017-10-23T03:25:44.050Z,0
2017-10-23T03:26:43.689Z,0
2017-10-23T03:27:44.393Z,0
2017-10-23T03:28:44.011Z,0
2017-10-23T03:29:43.999Z,0
2017-10-23T03:30:43.984Z,0
2017-10-23T03:31:43.977Z,0
2017-10-23T03:32:44.314Z,0
2017-10-23T03:33:43.605Z,0
2017-10-23T03:34:43.607Z,0
2017-10-23T03:35:43.583Z,0
2017-10-23T03:36:44.277Z,0
2017-10-23T03:37:44.587Z,0
2017-10-23T03:38:43.881Z,0
2017-10-23T03:39:44.212Z,0
2017-10-23T03:40:44.211Z,0
2017-10-23T03:41:43.844Z,0
2017-10-23T03:42:44.180Z,0
2017-10-23T03:43:43.824Z,0
2017-10-23T03:44:43.466Z,0
2017-10-23T03:45:44.134Z,0
2017-10-23T03:46:43.464Z,0
2017-10-23T03:47:43.430Z,0
2017-10-23T03:48:43.754Z,0
2017-10-23T03:49:44.087Z,0
2017-10-23T03:50:43.395Z,0
2017-10-23T03:51:43.721Z,0
2017-10-23T03:52:43.709Z,0
2017-10-23T03:53:44.035Z,0
2017-10-23T03:54:43.684Z,0
2017-10-23T03:55:44.019Z,0
2017-10-23T03:56:43.994Z,0
2017-10-23T03:57:44.012Z,0
2017-10-23T03:58:43.991Z,0
2017-10-23T03:59:43.621Z,0
2017-10-23T04:00:43.616Z,0
2017-10-23T04:01:43.593Z,0
2017-10-23T04:02:43.239Z,0
2017-10-23T04:03:44.248Z,0
2017-10-23T04:04:43.572Z,0
2017-10-23T04:05:43.550Z,0
2017-10-23T04:06:43.533Z,0
2017-10-23T04:07:43.891Z,0
2017-10-23T04:08:43.848Z,0
2017-10-23T04:09:43.149Z,0
2017-10-23T04:10:43.495Z,0
2017-10-23T04:11:43.824Z,0
2017-10-23T04:12:43.117Z,0
2017-10-23T04:13:43.461Z,0
2017-10-23T04:14:43.444Z,0
2017-10-23T04:15:43.455Z,0
2017-10-23T04:16:44.141Z,0
2017-10-23T04:17:43.054Z,0
2017-10-23T04:18:43.381Z,0
2017-10-23T04:19:44.050Z,0
2017-10-23T04:20:43.698Z,0
2017-10-23T04:21:43.345Z,0
2017-10-23T04:22:43.341Z,0
2017-10-23T04:23:43.657Z,0
2017-10-23T04:24:42.962Z,0
2017-10-23T04:25:43.658Z,0
2017-10-23T04:26:43.324Z,0
2017-10-23T04:27:43.298Z,0
2017-10-23T04:28:43.605Z,0
2017-10-23T04:29:43.638Z,0
2017-10-23T04:30:43.577Z,0
2017-10-23T04:31:43.892Z,0
2017-10-23T04:32:43.224Z,0
2017-10-23T04:33:43.566Z,0
2017-10-23T04:34:43.193Z,0
2017-10-23T04:35:42.825Z,0
2017-10-23T04:36:43.179Z,0
2017-10-23T04:37:43.823Z,0
2017-10-23T04:38:43.465Z,0
2017-10-23T04:39:43.477Z,0
2017-10-23T04:40:43.444Z,0
2017-10-23T04:41:43.090Z,0
2017-10-23T04:42:43.416Z,0
2017-10-23T04:43:43.093Z,0
2017-10-23T04:44:42.712Z,0
2017-10-23T04:45:43.405Z,0
2017-10-23T04:46:43.026Z,0
2017-10-23T04:47:43.353Z,0
2017-10-23T04:48:43.342Z,0
2017-10-23T04:49:43.332Z,0
2017-10-23T04:50:43.311Z,0
2017-10-23T04:51:42.988Z,0
2017-10-23T04:52:42.953Z,0
2017-10-23T04:53:43.311Z,0
2017-10-23T04:54:43.278Z,0
2017-10-23T04:55:43.946Z,0
2017-10-23T04:56:42.904Z,0
2017-10-23T04:57:42.892Z,0
2017-10-23T04:58:42.895Z,0
2017-10-23T04:59:43.229Z,0
2017-10-23T05:00:42.856Z,0
2017-10-23T05:01:42.865Z,0
2017-10-23T05:02:43.167Z,0
2017-10-23T05:03:42.824Z,0
2017-10-23T05:04:43.539Z,0
2017-10-23T05:05:42.788Z,0
2017-10-23T05:06:43.138Z,0
2017-10-23T05:07:43.460Z,0
2017-10-23T05:08:42.752Z,0
2017-10-23T05:09:43.483Z,0
2017-10-23T05:10:43.089Z,0
2017-10-23T05:11:42.373Z,0
2017-10-23T05:12:42.701Z,0
2017-10-23T05:13:43.393Z,0
2017-10-23T05:14:43.354Z,0
2017-10-23T05:15:42.659Z,0
2017-10-23T05:16:42.648Z,0
2017-10-23T05:17:42.667Z,0
2017-10-23T05:18:42.978Z,0
2017-10-23T05:19:42.977Z,0
2017-10-23T05:20:42.613Z,0
2017-10-23T05:21:42.926Z,0
2017-10-23T05:22:42.578Z,0
2017-10-23T05:23:42.925Z,0
2017-10-23T05:24:42.572Z,0
2017-10-23T05:25:42.198Z,0
2017-10-23T05:26:42.186Z,0
2017-10-23T05:27:42.871Z,0
2017-10-23T05:28:42.164Z,0
2017-10-23T05:29:42.498Z,0
2017-10-23T05:30:42.501Z,0
2017-10-23T05:31:42.490Z,0
2017-10-23T05:32:42.453Z,0
2017-10-23T05:33:42.127Z,0
2017-10-23T05:34:42.768Z,0
2017-10-23T05:35:43.091Z,0
2017-10-23T05:36:42.401Z,0
2017-10-23T05:37:42.395Z,0
2017-10-23T05:38:42.376Z,0
2017-10-23T05:39:42.363Z,0
2017-10-23T05:40:42.700Z,0
2017-10-23T05:41:42.339Z,0
2017-10-23T05:42:42.667Z,0
2017-10-23T05:43:42.348Z,0
2017-10-23T05:44:42.643Z,0
2017-10-23T05:45:42.287Z,0
2017-10-23T05:46:42.621Z,0
2017-10-23T05:47:42.607Z,0
2017-10-23T05:48:42.632Z,0
2017-10-23T05:49:41.907Z,0
2017-10-23T05:50:42.914Z,0
2017-10-23T05:51:42.553Z,0
2017-10-23T05:52:42.539Z,0
2017-10-23T05:53:42.187Z,0
2017-10-23T05:54:42.183Z,0
2017-10-23T05:55:41.820Z,5
2017-10-23T05:56:42.505Z,5
2017-10-23T05:57:42.492Z,5
2017-10-23T05:58:41.785Z,5
2017-10-23T05:59:42.466Z,5
2017-10-23T06:00:42.105Z,5
2017-10-23T06:01:41.765Z,5
2017-10-23T06:02:42.415Z,5
2017-10-23T06:03:41.742Z,5
2017-10-23T06:04:42.053Z,5
2017-10-23T06:05:42.054Z,5
2017-10-23T06:06:42.384Z,5
2017-10-23T06:07:42.010Z,5
2017-10-23T06:08:42.001Z,5
2017-10-23T06:09:42.327Z,10
2017-10-23T06:10:41.630Z,10
2017-10-23T06:11:42.301Z,10
2017-10-23T06:12:42.289Z,10
2017-10-23T06:13:41.955Z,15
2017-10-23T06:14:41.927Z,15
2017-10-23T06:15:42.619Z,15
2017-10-23T06:16:41.573Z,20
2017-10-23T06:17:41.899Z,20
2017-10-23T06:18:41.874Z,20
2017-10-23T06:19:42.216Z,20
2017-10-23T06:20:41.849Z,20
2017-10-23T06:21:41.833Z,25
2017-10-23T06:22:41.826Z,25
2017-10-23T06:23:41.466Z,25
2017-10-23T06:24:41.797Z,30
2017-10-23T06:25:41.797Z,30
2017-10-23T06:26:41.440Z,30
2017-10-23T06:27:42.138Z,25
2017-10-23T06:28:41.760Z,25
2017-10-23T06:29:41.396Z,30
2017-10-23T06:30:42.074Z,30
2017-10-23T06:31:41.711Z,25
2017-10-23T06:32:42.035Z,25
2017-10-23T06:33:42.034Z,30
2017-10-23T06:34:41.670Z,30
2017-10-23T06:35:41.318Z,30
2017-10-23T06:36:42.024Z,30
2017-10-23T06:37:41.994Z,30
2017-10-23T06:38:41.982Z,35
2017-10-23T06:39:41.946Z,35
2017-10-23T06:40:41.280Z,35
2017-10-23T06:41:41.940Z,35
2017-10-23T06:42:41.582Z,40
2017-10-23T06:43:42.595Z,45
2017-10-23T06:44:41.547Z,45
2017-10-23T06:45:41.885Z,45
2017-10-23T06:46:41.203Z,45
2017-10-23T06:47:41.875Z,40
2017-10-23T06:48:41.855Z,40
2017-10-23T06:49:41.828Z,40
2017-10-23T06:50:41.128Z,35
2017-10-23T06:51:41.828Z,35
2017-10-23T06:52:41.472Z,35
2017-10-23T06:53:41.439Z,40
2017-10-23T06:54:41.761Z,40
2017-10-23T06:55:41.761Z,45
2017-10-23T06:56:41.405Z,45
2017-10-23T06:57:41.726Z,45
2017-10-23T06:58:41.369Z,45
2017-10-23T06:59:41.698Z,45
2017-10-23T07:00:41.030Z,45
2017-10-23T07:01:41.337Z,40
2017-10-23T07:02:41.681Z,45
2017-10-23T07:03:41.669Z,50
2017-10-23T07:04:41.332Z,50
2017-10-23T07:05:41.630Z,55
2017-10-23T07:06:40.940Z,55
2017-10-23T07:07:41.266Z,55
2017-10-23T07:08:41.943Z,55
2017-10-23T07:09:41.621Z,75
2017-10-23T07:10:40.882Z,100
2017-10-23T07:11:41.552Z,105
2017-10-23T07:12:40.859Z,100
2017-10-23T07:13:41.208Z,90
2017-10-23T07:14:40.848Z,80
2017-10-23T07:15:41.531Z,75
2017-10-23T07:16:41.531Z,75
2017-10-23T07:17:41.181Z,75
2017-10-23T07:18:41.483Z,70
2017-10-23T07:19:41.475Z,75
2017-10-23T07:20:41.102Z,90
2017-10-23T07:21:40.754Z,100
2017-10-23T07:22:40.738Z,100
2017-10-23T07:23:41.406Z,100
2017-10-23T07:24:41.743Z,90
2017-10-23T07:25:41.056Z,85
2017-10-23T07:26:41.027Z,90
2017-10-23T07:27:41.026Z,85
2017-10-23T07:28:40.682Z,85
2017-10-23T07:29:41.342Z,90
2017-10-23T07:30:40.982Z,85
2017-10-23T07:31:40.640Z,80
2017-10-23T07:32:40.618Z,80
2017-10-23T07:33:40.607Z,85
2017-10-23T07:34:40.936Z,95
2017-10-23T07:35:41.269Z,95
2017-10-23T07:36:40.566Z,100
2017-10-23T07:37:40.573Z,115
2017-10-23T07:38:41.244Z,125
2017-10-23T07:39:40.553Z,125
2017-10-23T07:40:40.913Z,125
2017-10-23T07:41:41.543Z,120
2017-10-23T07:42:40.497Z,130
2017-10-23T07:43:40.531Z,160
2017-10-23T07:44:40.487Z,175
2017-10-23T07:45:40.802Z,150
2017-10-23T07:46:40.792Z,150
2017-10-23T07:47:41.124Z,135
2017-10-23T07:48:40.444Z,130
2017-10-23T07:49:41.834Z,140
2017-10-23T07:50:41.078Z,155
2017-10-23T07:51:40.394Z,160
2017-10-23T07:52:41.092Z,140
2017-10-23T07:53:40.714Z,130
2017-10-23T07:54:41.425Z,125
2017-10-23T07:55:41.044Z,130
2017-10-23T07:56:40.687Z,135
2017-10-23T07:57:45.683Z,120
2017-10-23T07:58:40.649Z,110
2017-10-23T07:59:40.639Z,120
2017-10-23T08:00:40.628Z,130
2017-10-23T08:01:40.614Z,125
2017-10-23T08:02:40.265Z,135
2017-10-23T08:03:41.294Z,145
2017-10-23T08:04:40.588Z,150
2017-10-23T08:05:40.569Z,165
2017-10-23T08:06:40.899Z,140
2017-10-23T08:07:40.550Z,125
2017-10-23T08:08:40.881Z,115
2017-10-23T08:09:40.523Z,115
2017-10-23T08:10:40.894Z,120
2017-10-23T08:11:40.850Z,130
2017-10-23T08:12:40.829Z,145
2017-10-23T08:13:40.485Z,150
2017-10-23T08:14:40.805Z,160
2017-10-23T08:15:40.112Z,155
2017-10-23T08:16:41.349Z,120
2017-10-23T08:17:40.098Z,125
2017-10-23T08:18:40.759Z,115
2017-10-23T08:19:40.751Z,85
2017-10-23T08:20:40.739Z,75
2017-10-23T08:21:41.071Z,80
2017-10-23T08:22:40.729Z,75
2017-10-23T08:23:40.371Z,60
2017-10-23T08:24:40.710Z,65
2017-10-23T08:25:41.034Z,70
2017-10-23T08:26:41.024Z,70
2017-10-23T08:27:40.314Z,85
2017-10-23T08:28:40.311Z,100
2017-10-23T08:29:39.945Z,105
2017-10-23T08:30:40.621Z,140
2017-10-23T08:31:40.268Z,130
2017-10-23T08:32:39.936Z,140
2017-10-23T08:33:40.266Z,140
2017-10-23T08:34:39.903Z,150
2017-10-23T08:35:39.909Z,135
2017-10-23T08:36:40.899Z,140
2017-10-23T08:37:39.877Z,130
2017-10-23T08:38:40.926Z,120
2017-10-23T08:39:40.520Z,130
2017-10-23T08:40:40.187Z,125
2017-10-23T08:41:40.501Z,120
2017-10-23T08:42:39.798Z,110
2017-10-23T08:43:40.124Z,110
2017-10-23T08:44:40.118Z,135
2017-10-23T08:45:40.105Z,115
2017-10-23T08:46:40.094Z,100
2017-10-23T08:47:39.734Z,130
2017-10-23T08:48:40.407Z,125
2017-10-23T08:49:40.053Z,120
2017-10-23T08:50:41.083Z,120
2017-10-23T08:51:40.045Z,115
2017-10-23T08:52:39.702Z,120
2017-10-23T08:53:40.352Z,115
2017-10-23T08:54:40.026Z,110
2017-10-23T08:55:39.660Z,115
2017-10-23T08:56:39.629Z,110
2017-10-23T08:57:39.963Z,120
2017-10-23T08:58:39.989Z,125
2017-10-23T08:59:40.274Z,120
2017-10-23T09:00:39.924Z,110
2017-10-23T09:01:40.281Z,105
2017-10-23T09:02:40.241Z,110
2017-10-23T09:03:39.899Z,105
2017-10-23T09:04:39.996Z,115
2017-10-23T09:05:39.871Z,110
2017-10-23T09:06:39.526Z,125
2017-10-23T09:07:39.839Z,130
2017-10-23T09:08:39.831Z,130
2017-10-23T09:09:40.159Z,115
2017-10-23T09:10:40.154Z,120
2017-10-23T09:11:40.501Z,120
2017-10-23T09:12:40.142Z,100
2017-10-23T09:13:40.125Z,115
2017-10-23T09:14:39.777Z,120
2017-10-23T09:15:39.405Z,125
2017-10-23T09:16:40.427Z,130
2017-10-23T09:17:40.430Z,135
2017-10-23T09:18:40.064Z,165
2017-10-23T09:19:39.999Z,145
2017-10-23T09:20:39.362Z,150
2017-10-23T09:21:39.334Z,165
2017-10-23T09:22:40.021Z,160
2017-10-23T09:23:40.012Z,150
2017-10-23T09:24:39.994Z,125
2017-10-23T09:25:39.629Z,120
2017-10-23T09:26:39.619Z,105
2017-10-23T09:27:40.307Z,135
2017-10-23T09:28:39.604Z,170
2017-10-23T09:29:39.603Z,170
2017-10-23T09:30:39.244Z,185
2017-10-23T09:31:39.917Z,175
2017-10-23T09:32:39.555Z,145
2017-10-23T09:33:39.195Z,125
2017-10-23T09:34:40.218Z,105
2017-10-23T09:35:39.514Z,90
2017-10-23T09:36:40.214Z,85
2017-10-23T09:37:39.830Z,85
2017-10-23T09:38:39.165Z,80
2017-10-23T09:39:39.808Z,75
2017-10-23T09:40:39.134Z,75
2017-10-23T09:41:39.101Z,75
2017-10-23T09:42:39.776Z,80
2017-10-23T09:43:39.420Z,85
2017-10-23T09:44:39.080Z,85
2017-10-23T09:45:39.073Z,90
2017-10-23T09:46:39.061Z,95
2017-10-23T09:47:39.372Z,95
2017-10-23T09:48:39.040Z,100
2017-10-23T09:49:39.708Z,85
2017-10-23T09:50:40.072Z,95
2017-10-23T09:51:38.982Z,80
2017-10-23T09:52:39.334Z,75
2017-10-23T09:53:39.329Z,75
2017-10-23T09:54:39.652Z,75
2017-10-23T09:55:39.617Z,75
2017-10-23T09:56:39.624Z,75
2017-10-23T09:57:39.594Z,80
2017-10-23T09:58:39.593Z,85
2017-10-23T09:59:39.579Z,80
2017-10-23T10:00:39.924Z,80
2017-10-23T10:01:39.548Z,85
2017-10-23T10:02:39.213Z,90
2017-10-23T10:03:39.195Z,80
2017-10-23T10:04:39.516Z,80
2017-10-23T10:05:38.818Z,95
2017-10-23T10:06:39.158Z,105
2017-10-23T10:07:38.811Z,120
2017-10-23T10:08:39.132Z,110
2017-10-23T10:09:39.119Z,125
2017-10-23T10:10:39.464Z,125
2017-10-23T10:11:38.753Z,115
2017-10-23T10:12:39.415Z,100
2017-10-23T10:13:39.406Z,95
2017-10-23T10:14:39.068Z,85
2017-10-23T10:15:38.694Z,75
2017-10-23T10:16:38.687Z,75
2017-10-23T10:17:38.683Z,80
2017-10-23T10:18:39.348Z,85
2017-10-23T10:20:24.759Z,90
2017-10-23T10:20:38.982Z,90
2017-10-23T10:21:38.627Z,90
2017-10-23T10:22:39.308Z,90
2017-10-23T10:23:38.940Z,85
2017-10-23T10:24:39.615Z,75
2017-10-23T10:25:38.940Z,75
2017-10-23T10:26:38.904Z,75
2017-10-23T10:27:38.553Z,75
2017-10-23T10:28:38.927Z,75
2017-10-23T10:29:38.529Z,80
2017-10-23T10:30:39.415Z,85
2017-10-23T10:31:38.510Z,90
2017-10-23T10:32:38.501Z,80
2017-10-23T10:33:38.827Z,80
2017-10-23T10:34:38.494Z,80
2017-10-23T10:35:39.140Z,75
2017-10-23T10:36:38.846Z,75
2017-10-23T10:37:39.144Z,70
2017-10-23T10:38:39.107Z,75
2017-10-23T10:39:38.763Z,70
2017-10-23T10:40:38.908Z,80
2017-10-23T10:41:38.728Z,90
2017-10-23T10:42:39.413Z,115
2017-10-23T10:43:38.722Z,115
2017-10-23T10:44:39.033Z,115
2017-10-23T10:45:38.686Z,105
2017-10-23T10:46:38.687Z,95
2017-10-23T10:47:38.687Z,105
2017-10-23T10:48:38.657Z,110
2017-10-23T10:49:38.637Z,105
2017-10-23T10:50:38.626Z,90
2017-10-23T10:51:39.700Z,95
2017-10-23T10:52:38.604Z,95
2017-10-23T10:53:38.585Z,90
2017-10-23T10:54:38.580Z,90
2017-10-23T10:55:38.581Z,95
2017-10-23T10:56:38.916Z,110
2017-10-23T10:57:38.891Z,100
2017-10-23T10:58:39.230Z,100
2017-10-23T10:59:38.861Z,100
2017-10-23T11:00:38.557Z,105
2017-10-23T11:01:38.506Z,110
2017-10-23T11:02:38.482Z,110
2017-10-23T11:03:38.470Z,100
2017-10-23T11:04:38.802Z,95
2017-10-23T11:05:38.789Z,85
2017-10-23T11:06:38.435Z,80
2017-10-23T11:07:38.426Z,80
2017-10-23T11:08:38.071Z,75
2017-10-23T11:09:38.399Z,70
2017-10-23T11:10:38.050Z,70
2017-10-23T11:11:39.069Z,65
2017-10-23T11:12:38.371Z,70
2017-10-23T11:13:38.350Z,75
2017-10-23T11:14:38.352Z,85
2017-10-23T11:15:38.671Z,80
2017-10-23T11:16:37.980Z,80
2017-10-23T11:17:39.010Z,85
2017-10-23T11:18:38.662Z,75
2017-10-23T11:19:38.633Z,70
2017-10-23T11:20:37.979Z,80
2017-10-23T11:21:38.604Z,75
2017-10-23T11:22:38.597Z,80
2017-10-23T11:23:38.249Z,85
2017-10-23T11:24:38.920Z,90
2017-10-23T11:25:37.883Z,90
2017-10-23T11:26:38.892Z,100
2017-10-23T11:27:38.535Z,90
2017-10-23T11:28:37.838Z,90
2017-10-23T11:29:38.181Z,90
2017-10-23T11:30:37.814Z,80
2017-10-23T11:31:38.148Z,80
2017-10-23T11:32:38.489Z,85
2017-10-23T11:33:38.146Z,90
2017-10-23T11:34:38.457Z,100
2017-10-23T11:35:38.467Z,85
2017-10-23T11:36:38.111Z,85
2017-10-23T11:37:38.080Z,80
2017-10-23T11:38:38.072Z,80
2017-10-23T11:39:38.422Z,95
2017-10-23T11:40:38.044Z,95
2017-10-23T11:41:38.423Z,85
2017-10-23T11:42:38.388Z,85
2017-10-23T11:43:37.676Z,100
2017-10-23T11:44:37.997Z,90
2017-10-23T11:45:37.645Z,75
2017-10-23T11:46:37.978Z,75
2017-10-23T11:47:37.966Z,70
2017-10-23T11:48:38.638Z,65
2017-10-23T11:49:37.960Z,70
2017-10-23T11:50:37.926Z,75
2017-10-23T11:51:37.921Z,75
2017-10-23T11:52:38.251Z,70
2017-10-23T11:53:37.899Z,75
2017-10-23T11:54:37.888Z,75
2017-10-23T11:55:37.895Z,80
2017-10-23T11:56:37.876Z,80
2017-10-23T11:57:37.865Z,70
2017-10-23T11:58:37.499Z,75
2017-10-23T11:59:37.830Z,70
2017-10-23T12:00:37.814Z,75
2017-10-23T12:01:37.803Z,65
2017-10-23T12:02:37.815Z,65
2017-10-23T12:03:38.851Z,65
2017-10-23T12:04:37.454Z,60
2017-10-23T12:05:38.101Z,55
2017-10-23T12:06:37.762Z,55
2017-10-23T12:07:38.086Z,50
2017-10-23T12:08:38.093Z,50
2017-10-23T12:09:37.714Z,55
2017-10-23T12:10:37.382Z,65
2017-10-23T12:11:37.351Z,75
2017-10-23T12:12:38.025Z,90
2017-10-23T12:13:37.667Z,90
2017-10-23T12:14:37.313Z,80
2017-10-23T12:15:37.652Z,85
2017-10-23T12:16:37.995Z,105
2017-10-23T12:17:37.644Z,120
2017-10-23T12:18:37.612Z,105
2017-10-23T12:19:37.595Z,105
2017-10-23T12:20:37.249Z,125
2017-10-23T12:21:37.573Z,110
2017-10-23T12:22:37.225Z,85
2017-10-23T12:23:37.212Z,85
2017-10-23T12:24:37.887Z,75
2017-10-23T12:25:37.532Z,80
2017-10-23T12:26:37.874Z,75
2017-10-23T12:27:37.171Z,90
2017-10-23T12:28:37.850Z,105
2017-10-23T12:29:37.144Z,100
2017-10-23T12:30:37.835Z,95
2017-10-23T12:31:37.463Z,95
2017-10-23T12:32:37.505Z,100
2017-10-23T12:33:37.445Z,110
2017-10-23T12:34:37.089Z,105
2017-10-23T12:35:37.761Z,105
2017-10-23T12:36:37.091Z,120
2017-10-23T12:37:37.756Z,85
2017-10-23T12:38:37.388Z,70
2017-10-23T12:39:37.731Z,70
2017-10-23T12:40:37.021Z,75
2017-10-23T12:41:37.694Z,85
2017-10-23T12:42:37.376Z,75
2017-10-23T12:43:36.992Z,70
2017-10-23T12:44:37.678Z,70
2017-10-23T12:45:37.998Z,70
2017-10-23T12:46:37.637Z,70
2017-10-23T12:47:37.286Z,75
2017-10-23T12:48:36.931Z,75
2017-10-23T12:49:36.923Z,60
2017-10-23T12:50:37.614Z,65
2017-10-23T12:51:37.245Z,70
2017-10-23T12:52:36.890Z,80
2017-10-23T12:53:38.244Z,100
2017-10-23T12:54:37.211Z,100
2017-10-23T12:55:37.202Z,100
2017-10-23T12:56:37.214Z,110
2017-10-23T12:57:36.838Z,135
2017-10-23T12:58:37.840Z,145
2017-10-23T12:59:37.835Z,145
2017-10-23T13:00:37.147Z,140
2017-10-23T13:01:37.486Z,165
2017-10-23T13:02:37.808Z,160
2017-10-23T13:03:37.465Z,160
2017-10-23T13:04:36.756Z,185
2017-10-23T13:05:36.752Z,175
2017-10-23T13:06:36.768Z,170
2017-10-23T13:07:37.409Z,170
2017-10-23T13:08:36.712Z,145
2017-10-23T13:09:36.722Z,125
2017-10-23T13:10:36.690Z,115
2017-10-23T13:11:37.026Z,120
2017-10-23T13:12:36.707Z,135
2017-10-23T13:13:37.380Z,160
2017-10-23T13:14:37.666Z,185
2017-10-23T13:15:36.981Z,190
2017-10-23T13:16:36.979Z,200
2017-10-23T13:17:36.955Z,190
2017-10-23T13:18:37.309Z,150
2017-10-23T13:19:36.932Z,125
2017-10-23T13:20:36.928Z,100
2017-10-23T13:21:37.262Z,95
2017-10-23T13:22:37.586Z,95
2017-10-23T13:23:36.892Z,125
2017-10-23T13:24:36.881Z,135
2017-10-23T13:25:37.565Z,130
2017-10-23T13:26:36.522Z,130
2017-10-23T13:27:36.847Z,110
2017-10-23T13:28:36.849Z,115
2017-10-23T13:29:36.491Z,120
2017-10-23T13:30:36.508Z,125
2017-10-23T13:31:37.492Z,130
2017-10-23T13:32:36.464Z,165
2017-10-23T13:33:37.145Z,185
2017-10-23T13:34:36.449Z,185
2017-10-23T13:35:37.451Z,175
2017-10-23T13:36:36.775Z,170
2017-10-23T13:37:37.114Z,155
2017-10-23T13:38:37.081Z,145
2017-10-23T13:39:37.763Z,120
2017-10-23T13:40:36.713Z,95
2017-10-23T13:41:36.704Z,80
2017-10-23T13:42:36.706Z,75
2017-10-23T13:43:37.050Z,75
2017-10-23T13:44:36.331Z,70
2017-10-23T13:45:37.004Z,55
2017-10-23T13:46:36.310Z,60
2017-10-23T13:47:36.654Z,85
2017-10-23T13:48:36.635Z,120
2017-10-23T13:49:36.960Z,140
2017-10-23T13:50:36.269Z,135
2017-10-23T13:51:36.600Z,125
2017-10-23T13:52:36.248Z,105
2017-10-23T13:53:37.263Z,90
2017-10-23T13:54:36.235Z,80
2017-10-23T13:55:36.574Z,75
2017-10-23T13:56:36.555Z,70
2017-10-23T13:57:36.535Z,65
2017-10-23T13:58:36.524Z,60
2017-10-23T13:59:36.860Z,55
2017-10-23T14:00:37.210Z,50
2017-10-23T14:01:36.507Z,50
2017-10-23T14:02:37.170Z,50
2017-10-23T14:03:36.489Z,50
2017-10-23T14:04:36.125Z,40
2017-10-23T14:05:36.467Z,40
2017-10-23T14:06:36.785Z,40
2017-10-23T14:07:36.089Z,30
2017-10-23T14:08:36.760Z,25
2017-10-23T14:09:36.068Z,25
2017-10-23T14:10:36.424Z,20
2017-10-23T14:11:36.735Z,20
2017-10-23T14:12:36.044Z,25
2017-10-23T14:13:36.377Z,25
2017-10-23T14:14:37.061Z,25
2017-10-23T14:15:36.353Z,20
2017-10-23T14:16:37.367Z,25
2017-10-23T14:17:37.052Z,30
2017-10-23T14:18:36.316Z,30
2017-10-23T14:19:36.660Z,30
2017-10-23T14:20:36.633Z,25
2017-10-23T14:21:35.944Z,25